Time;durP1;ratioP1;P1;durP2;ratioP2;P2;SDS_P1;SDS_P2;PMS_P1;PMS_P2;Temp;Humidity;BMP_temperature;BMP_pressure;BME280_temperature;BME280_humidity;BME280_pressure;Samples;Min_cycle;Max_cycle;Signal;HPM_P1;HPM_P2
2023/08/03 00:01:59;;;;;;;0.93;0.40;;;16.10;99.90;;;;;;5042399;28;20039;-74
2023/08/03 00:04:24;;;;;;;2.03;0.47;;;16.20;99.90;;;;;;5042347;28;20067;-73
2023/08/03 00:06:50;;;;;;;0.98;0.50;;;16.10;99.90;;;;;;5041297;28;20250;-73
2023/08/03 00:09:16;;;;;;;1.23;0.50;;;16.20;99.90;;;;;;5041359;28;20457;-73
2023/08/03 00:11:41;;;;;;;1.10;0.50;;;16.10;99.90;;;;;;5025560;28;20127;-73
2023/08/03 00:14:07;;;;;;;4.05;0.73;;;16.20;99.90;;;;;;5041921;28;20114;-73
2023/08/03 00:16:32;;;;;;;1.98;0.55;;;16.20;99.90;;;;;;5044422;28;20123;-73
2023/08/03 00:18:58;;;;;;;1.67;0.60;;;16.20;99.90;;;;;;5042994;28;20036;-73
2023/08/03 00:21:23;;;;;;;1.42;0.50;;;16.20;99.90;;;;;;5074258;28;20624;-73
2023/08/03 00:23:49;;;;;;;3.17;0.75;;;16.20;99.90;;;;;;5039871;28;20111;-73
2023/08/03 00:26:15;;;;;;;1.10;0.40;;;16.20;99.90;;;;;;5039316;28;20048;-70
2023/08/03 00:28:41;;;;;;;1.48;0.32;;;16.20;99.90;;;;;;5042216;28;20045;-71
2023/08/03 00:31:07;;;;;;;1.95;0.50;;;16.20;99.90;;;;;;5020598;28;20394;-71
2023/08/03 00:33:33;;;;;;;1.33;0.50;;;16.20;99.90;;;;;;5040339;28;20037;-70
2023/08/03 00:35:58;;;;;;;1.75;0.60;;;16.20;99.90;;;;;;5075633;28;20040;-71
2023/08/03 00:38:24;;;;;;;2.50;0.70;;;16.10;99.90;;;;;;5072492;28;20029;-71
2023/08/03 00:40:51;;;;;;;0.88;0.50;;;16.20;99.90;;;;;;5042486;28;20707;-70
2023/08/03 00:43:17;;;;;;;3.15;0.65;;;16.20;99.90;;;;;;5023183;28;20126;-71
2023/08/03 00:45:42;;;;;;;1.17;0.50;;;16.20;99.90;;;;;;5061762;28;20123;-70
2023/08/03 00:48:08;;;;;;;1.83;0.65;;;16.20;99.90;;;;;;5044482;28;20455;-71
2023/08/03 00:50:34;;;;;;;2.40;0.40;;;16.20;99.90;;;;;;5078404;28;20120;-70
2023/08/03 00:53:00;;;;;;;2.15;0.40;;;16.20;99.90;;;;;;5041180;28;20044;-71
2023/08/03 00:55:25;;;;;;;0.93;0.40;;;16.20;99.90;;;;;;5043859;28;20448;-71
2023/08/03 00:57:51;;;;;;;2.65;0.60;;;16.20;99.90;;;;;;5053044;28;20203;-71
2023/08/03 01:00:16;;;;;;;0.82;0.30;;;16.20;99.90;;;;;;5057778;28;20048;-71
2023/08/03 01:02:42;;;;;;;3.25;0.47;;;16.20;99.90;;;;;;5039752;28;20120;-71
2023/08/03 01:05:08;;;;;;;0.45;0.30;;;16.10;99.90;;;;;;5041542;28;20037;-71
2023/08/03 01:07:36;;;;;;;0.77;0.38;;;16.20;99.90;;;;;;5071919;28;20591;-71
2023/08/03 01:10:02;;;;;;;0.40;0.22;;;16.20;99.90;;;;;;5040592;28;20036;-71
2023/08/03 01:12:28;;;;;;;1.45;0.40;;;16.10;99.90;;;;;;5023054;28;20119;-71
2023/08/03 01:14:54;;;;;;;0.30;0.30;;;16.20;99.90;;;;;;5042276;28;20048;-71
2023/08/03 01:17:21;;;;;;;2.13;0.28;;;16.20;99.90;;;;;;5025069;28;20531;-71
2023/08/03 01:19:46;;;;;;;1.80;0.20;;;16.20;99.90;;;;;;5073618;28;20536;-71
2023/08/03 01:22:13;;;;;;;2.28;0.40;;;16.20;99.90;;;;;;5041021;28;20041;-71
2023/08/03 01:24:39;;;;;;;1.15;0.40;;;16.20;99.90;;;;;;5039816;28;20040;-71
2023/08/03 01:27:05;;;;;;;2.28;0.40;;;16.20;99.90;;;;;;5039710;28;20056;-71
2023/08/03 01:29:31;;;;;;;0.93;0.43;;;16.20;99.90;;;;;;5039680;28;20514;-71
2023/08/03 01:31:58;;;;;;;1.08;0.45;;;16.20;99.90;;;;;;5036423;28;20083;-71
2023/08/03 01:34:27;;;;;;;0.50;0.30;;;16.20;99.90;;;;;;5070309;28;20116;-70
2023/08/03 01:36:54;;;;;;;0.82;0.40;;;16.20;99.90;;;;;;5039372;28;20786;-71
2023/08/03 01:39:20;;;;;;;0.98;0.40;;;16.10;99.90;;;;;;5036746;28;20051;-71
2023/08/03 01:41:46;;;;;;;0.10;0.10;;;16.20;99.90;;;;;;5070660;28;20034;-71
2023/08/03 01:44:29;;;;;;;0.47;0.30;;;16.20;99.90;;;;;;5039313;28;20024;-71
2023/08/03 01:46:56;;;;;;;1.70;0.30;;;16.20;99.90;;;;;;5070941;28;20079;-71
2023/08/03 01:49:23;;;;;;;1.35;0.50;;;16.20;99.90;;;;;;5041597;28;20044;-71
2023/08/03 01:51:50;;;;;;;1.35;0.30;;;16.20;99.90;;;;;;5036154;28;20055;-71
2023/08/03 01:54:16;;;;;;;1.45;0.30;;;16.20;99.90;;;;;;5035011;28;20079;-71
2023/08/03 01:56:42;;;;;;;2.22;0.65;;;16.20;99.90;;;;;;5039898;28;20522;-71
2023/08/03 01:59:08;;;;;;;1.70;0.60;;;16.20;99.90;;;;;;5038779;28;20124;-71
2023/08/03 02:01:33;;;;;;;2.03;0.22;;;16.20;99.90;;;;;;5038405;28;20543;-71
2023/08/03 02:03:59;;;;;;;1.60;0.40;;;16.20;99.90;;;;;;5038775;28;20537;-71
2023/08/03 02:06:25;;;;;;;0.65;0.38;;;16.20;99.90;;;;;;5020652;28;20570;-71
2023/08/03 02:08:50;;;;;;;1.42;0.50;;;16.20;99.90;;;;;;5037039;28;20112;-71
2023/08/03 02:11:16;;;;;;;0.57;0.28;;;16.20;99.90;;;;;;5020596;28;20040;-71
2023/08/03 02:13:41;;;;;;;1.08;0.50;;;16.20;99.90;;;;;;5039130;28;20111;-71
2023/08/03 02:16:11;;;;;;;0.70;0.43;;;16.20;99.90;;;;;;5040897;28;20040;-71
2023/08/03 02:18:38;;;;;;;1.15;0.40;;;16.20;99.90;;;;;;5037884;28;20044;-70
2023/08/03 02:21:05;;;;;;;1.10;0.32;;;16.10;99.90;;;;;;5033946;28;20077;-70
2023/08/03 02:23:30;;;;;;;0.95;0.38;;;16.20;99.90;;;;;;5039388;28;20491;-71
2023/08/03 02:25:56;;;;;;;2.70;0.40;;;16.20;99.90;;;;;;5038020;28;20036;-70
2023/08/03 02:28:22;;;;;;;1.08;0.40;;;16.20;99.90;;;;;;5038059;28;20094;-71
2023/08/03 02:30:47;;;;;;;0.70;0.40;;;16.20;99.90;;;;;;5039294;28;20044;-72
2023/08/03 02:33:13;;;;;;;1.50;0.50;;;16.20;99.90;;;;;;5037017;28;20100;-71
2023/08/03 02:35:39;;;;;;;0.80;0.40;;;16.20;99.90;;;;;;5067305;28;20383;-71
2023/08/03 02:38:08;;;;;;;1.00;0.50;;;16.10;99.90;;;;;;5036691;28;20128;-71
2023/08/03 02:40:34;;;;;;;0.52;0.38;;;16.10;99.90;;;;;;5036288;28;20043;-71
2023/08/03 02:42:59;;;;;;;1.15;0.45;;;16.10;99.90;;;;;;5037734;28;20029;-71
2023/08/03 02:45:25;;;;;;;1.50;0.55;;;16.10;99.90;;;;;;5037517;28;20402;-71
2023/08/03 02:47:51;;;;;;;2.00;0.60;;;16.20;99.90;;;;;;5038147;28;20048;-71
2023/08/03 02:50:17;;;;;;;1.13;0.52;;;16.10;99.90;;;;;;5055076;28;20721;-71
2023/08/03 02:52:43;;;;;;;1.63;0.60;;;16.10;99.90;;;;;;5037191;28;20065;-71
2023/08/03 02:55:08;;;;;;;1.13;0.65;;;16.10;99.90;;;;;;5017185;28;20612;-71
2023/08/03 02:57:34;;;;;;;3.38;0.70;;;16.20;99.90;;;;;;5037372;28;20084;-72
2023/08/03 03:00:00;;;;;;;1.77;0.70;;;16.20;99.90;;;;;;5070225;28;20048;-71
2023/08/03 03:02:25;;;;;;;2.05;0.60;;;16.20;99.90;;;;;;5037628;28;20048;-71
2023/08/03 03:04:51;;;;;;;1.35;0.68;;;16.20;99.90;;;;;;5036252;28;20157;-71
2023/08/03 03:07:16;;;;;;;1.52;0.50;;;16.20;99.90;;;;;;5042442;28;20514;-71
2023/08/03 03:09:42;;;;;;;1.25;0.50;;;16.10;99.90;;;;;;5035458;28;20130;-71
2023/08/03 03:12:08;;;;;;;1.92;0.70;;;16.10;99.90;;;;;;5019223;28;20041;-72
2023/08/03 03:14:36;;;;;;;4.18;0.95;;;16.10;99.90;;;;;;5034734;28;20258;-71
2023/08/03 03:17:02;;;;;;;2.90;0.98;;;16.10;99.90;;;;;;5066659;28;21448;-71
2023/08/03 03:19:28;;;;;;;2.17;0.90;;;16.20;99.90;;;;;;5037285;28;20041;-71
2023/08/03 03:21:54;;;;;;;2.30;1.00;;;16.20;99.90;;;;;;5040041;28;20395;-71
2023/08/03 03:24:19;;;;;;;4.15;1.27;;;16.10;99.90;;;;;;5032583;28;20592;-71
2023/08/03 03:26:45;;;;;;;2.75;1.20;;;16.20;99.90;;;;;;5035998;28;20056;-70
2023/08/03 03:29:11;;;;;;;2.67;1.40;;;16.20;99.90;;;;;;5046147;28;20049;-71
2023/08/03 03:31:37;;;;;;;3.78;1.38;;;16.20;99.90;;;;;;5036155;28;20123;-71
2023/08/03 03:34:02;;;;;;;2.65;1.30;;;16.20;99.90;;;;;;5050041;28;20037;-71
2023/08/03 03:36:28;;;;;;;4.63;1.60;;;16.20;99.90;;;;;;5070327;28;20106;-71
2023/08/03 03:38:53;;;;;;;4.20;1.40;;;16.20;99.90;;;;;;5030462;28;20459;-71
2023/08/03 03:41:19;;;;;;;4.50;1.40;;;16.20;99.90;;;;;;5036080;28;20521;-71
2023/08/03 03:43:45;;;;;;;3.70;1.33;;;16.20;99.90;;;;;;5071992;28;20037;-71
2023/08/03 03:46:10;;;;;;;3.35;1.33;;;16.20;99.90;;;;;;5038128;28;20525;-71
2023/08/03 03:48:36;;;;;;;2.88;1.50;;;16.20;99.90;;;;;;5069910;28;20446;-71
2023/08/03 03:51:01;;;;;;;3.28;1.30;;;16.20;99.90;;;;;;5037761;28;20036;-71
2023/08/03 03:53:27;;;;;;;4.95;1.60;;;16.20;99.90;;;;;;5034551;28;20124;-71
2023/08/03 03:55:52;;;;;;;2.45;1.35;;;16.20;99.90;;;;;;5035085;28;20040;-71
2023/08/03 03:58:18;;;;;;;2.55;1.00;;;16.20;99.90;;;;;;5034611;28;20116;-71
2023/08/03 04:00:44;;;;;;;4.35;1.55;;;16.20;99.90;;;;;;5041362;28;20045;-72
2023/08/03 04:03:10;;;;;;;3.35;1.30;;;16.20;99.90;;;;;;5069886;28;20071;-71
2023/08/03 04:05:36;;;;;;;2.67;1.30;;;16.20;99.90;;;;;;5037879;28;20041;-71
2023/08/03 04:08:03;;;;;;;6.57;1.55;;;16.20;99.90;;;;;;5034215;28;20045;-71
2023/08/03 04:10:29;;;;;;;2.50;1.10;;;16.20;99.90;;;;;;5038363;28;20036;-71
2023/08/03 04:12:55;;;;;;;6.88;1.50;;;16.20;99.90;;;;;;5070327;28;20037;-71
2023/08/03 04:15:21;;;;;;;2.92;1.20;;;16.10;99.90;;;;;;5036507;28;20037;-71
2023/08/03 04:17:48;;;;;;;4.55;1.25;;;16.10;99.90;;;;;;5042083;28;20040;-71
2023/08/03 04:20:15;;;;;;;6.90;1.55;;;16.10;99.90;;;;;;5042649;28;20383;-71
2023/08/03 04:22:40;;;;;;;3.92;1.23;;;16.10;99.90;;;;;;5041452;28;20354;-71
2023/08/03 04:25:07;;;;;;;4.35;1.40;;;16.00;99.90;;;;;;5071117;28;20383;-71
2023/08/03 04:27:32;;;;;;;3.35;1.92;;;16.10;99.90;;;;;;5040740;28;20562;-71
2023/08/03 04:29:58;;;;;;;4.47;1.33;;;16.10;99.90;;;;;;5036470;28;20171;-71
2023/08/03 04:32:23;;;;;;;2.88;1.30;;;16.10;99.90;;;;;;5039021;28;20136;-71
2023/08/03 04:34:50;;;;;;;5.10;1.45;;;16.10;99.90;;;;;;5042124;28;20076;-71
2023/08/03 04:37:16;;;;;;;5.43;1.20;;;16.10;99.90;;;;;;5041648;28;20122;-72
2023/08/03 04:39:42;;;;;;;3.30;0.98;;;16.10;99.90;;;;;;5038108;28;20442;-71
2023/08/03 04:42:07;;;;;;;6.80;1.20;;;16.10;99.90;;;;;;5043513;28;20041;-71
2023/08/03 04:44:33;;;;;;;3.47;1.13;;;16.20;99.90;;;;;;5039433;28;20032;-71
2023/08/03 04:46:59;;;;;;;4.70;1.10;;;16.10;99.90;;;;;;5039213;28;20498;-72
2023/08/03 04:49:25;;;;;;;5.95;1.48;;;16.10;99.90;;;;;;5038825;28;20041;-71
2023/08/03 04:51:51;;;;;;;4.65;1.10;;;16.10;99.90;;;;;;5039207;28;20045;-71
2023/08/03 04:54:18;;;;;;;3.25;1.00;;;16.10;99.90;;;;;;5038590;28;20037;-71
2023/08/03 04:56:43;;;;;;;2.60;1.00;;;16.10;99.90;;;;;;5022673;28;20040;-74
2023/08/03 04:59:09;;;;;;;3.63;0.98;;;16.10;99.90;;;;;;5037356;28;20039;-73
2023/08/03 05:01:34;;;;;;;3.08;1.02;;;16.10;99.90;;;;;;5037382;28;20278;-74
2023/08/03 05:04:00;;;;;;;2.72;0.80;;;16.20;99.90;;;;;;5041601;28;20513;-73
2023/08/03 05:06:27;;;;;;;1.30;0.55;;;16.20;99.90;;;;;;5071721;28;20041;-73
2023/08/03 05:08:52;;;;;;;3.78;0.80;;;16.20;99.90;;;;;;5038741;28;20114;-74
2023/08/03 05:11:18;;;;;;;3.70;0.82;;;16.30;99.90;;;;;;5042003;28;20539;-73
2023/08/03 05:13:43;;;;;;;2.53;0.82;;;16.20;99.90;;;;;;5073777;28;20056;-74
2023/08/03 05:16:09;;;;;;;2.88;0.90;;;16.30;99.90;;;;;;5023293;28;20045;-74
2023/08/03 05:18:35;;;;;;;6.43;1.13;;;16.30;99.90;;;;;;5055591;28;20079;-74
2023/08/03 05:21:01;;;;;;;3.60;1.13;;;16.30;99.90;;;;;;5022794;28;20045;-73
2023/08/03 05:23:26;;;;;;;3.03;0.65;;;16.30;99.90;;;;;;5006658;28;20127;-73
2023/08/03 05:25:56;;;;;;;3.65;0.90;;;16.30;99.90;;;;;;5024097;28;20045;-74
2023/08/03 05:28:23;;;;;;;2.38;0.95;;;16.40;99.90;;;;;;5037313;28;20036;-74
2023/08/03 05:30:48;;;;;;;2.55;0.90;;;16.40;99.90;;;;;;5039343;28;20128;-74
2023/08/03 05:33:15;;;;;;;3.53;0.90;;;16.30;99.90;;;;;;5070869;28;20452;-74
2023/08/03 05:35:41;;;;;;;2.42;1.38;;;16.40;99.90;;;;;;5041443;28;20788;-73
2023/08/03 05:38:06;;;;;;;2.33;0.88;;;16.40;99.90;;;;;;5038451;28;20087;-74
2023/08/03 05:40:32;;;;;;;2.83;1.08;;;16.40;99.90;;;;;;5041170;28;20446;-74
2023/08/03 05:42:58;;;;;;;5.30;0.90;;;16.40;99.90;;;;;;5023889;28;20037;-73
2023/08/03 05:45:48;;;;;;;3.25;1.13;;;16.40;99.90;;;;;;5039150;28;20036;-74
2023/08/03 05:48:17;;;;;;;4.47;1.10;;;16.40;99.90;;;;;;5039089;28;20029;-74
2023/08/03 05:50:44;;;;;;;5.85;1.05;;;16.50;99.90;;;;;;5043361;28;20092;-74
2023/08/03 05:53:10;;;;;;;2.97;0.93;;;16.50;99.90;;;;;;5037936;28;20102;-74
2023/08/03 05:55:37;;;;;;;3.35;1.05;;;16.50;99.90;;;;;;5040412;28;20053;-73
2023/08/03 05:58:04;;;;;;;3.83;1.00;;;16.60;99.90;;;;;;5037577;28;20055;-74
2023/08/03 06:00:30;;;;;;;4.65;1.45;;;16.60;99.90;;;;;;5033685;28;20044;-73
2023/08/03 06:02:59;;;;;;;2.50;0.77;;;16.60;99.90;;;;;;5016595;28;20045;-74
2023/08/03 06:05:45;;;;;;;3.70;1.00;;;16.70;99.90;;;;;;5040696;28;20098;-74
2023/08/03 06:08:24;;;;;;;3.60;1.30;;;16.70;99.90;;;;;;5035414;28;20760;-74
2023/08/03 06:10:55;;;;;;;1.52;0.80;;;16.70;99.90;;;;;;5042362;28;20040;-74
2023/08/03 06:13:27;;;;;;;7.47;1.45;;;16.70;99.90;;;;;;5039842;28;20073;-74
2023/08/03 06:15:53;;;;;;;1.83;0.85;;;16.70;99.90;;;;;;5036454;28;20095;-74
2023/08/03 06:18:20;;;;;;;3.55;0.90;;;16.80;99.90;;;;;;5036269;28;20489;-74
2023/08/03 06:20:48;;;;;;;3.05;0.85;;;16.70;99.90;;;;;;5031655;28;20040;-73
2023/08/03 06:23:21;;;;;;;3.97;0.98;;;16.80;99.90;;;;;;5035464;28;20040;-74
2023/08/03 06:25:47;;;;;;;4.72;1.00;;;16.80;99.90;;;;;;5037529;28;20041;-74
2023/08/03 06:28:18;;;;;;;2.22;1.02;;;16.80;99.90;;;;;;5036603;28;20053;-74
2023/08/03 06:30:48;;;;;;;5.07;1.00;;;16.90;99.90;;;;;;5034926;28;20571;-74
2023/08/03 06:33:23;;;;;;;2.13;1.10;;;16.90;99.90;;;;;;5035683;28;20074;-74
2023/08/03 06:35:52;;;;;;;4.00;1.00;;;16.90;99.90;;;;;;5038313;28;20486;-74
2023/08/03 06:38:21;;;;;;;4.03;1.25;;;17.00;99.90;;;;;;5034163;28;20450;-74
2023/08/03 06:40:48;;;;;;;4.47;1.20;;;17.00;99.90;;;;;;5034964;28;20037;-74
2023/08/03 06:43:14;;;;;;;1.73;0.82;;;17.00;99.90;;;;;;5033664;28;20044;-75
2023/08/03 06:45:41;;;;;;;5.00;1.10;;;17.00;99.90;;;;;;5039195;28;20040;-75
2023/08/03 06:48:08;;;;;;;2.10;0.90;;;17.00;99.90;;;;;;5016354;28;20036;-74
2023/08/03 06:50:34;;;;;;;3.13;0.93;;;17.10;99.90;;;;;;5035567;28;20041;-75
2023/08/03 06:53:03;;;;;;;4.63;0.98;;;17.10;99.90;;;;;;5017544;28;20064;-74
2023/08/03 06:55:30;;;;;;;5.97;1.10;;;17.10;99.90;;;;;;5020120;28;20032;-74
2023/08/03 06:57:56;;;;;;;3.90;1.17;;;17.10;99.90;;;;;;5034597;28;20609;-74
2023/08/03 07:00:23;;;;;;;3.05;0.95;;;17.10;99.90;;;;;;5022001;28;20033;-74
2023/08/03 07:02:49;;;;;;;4.22;1.30;;;17.10;99.90;;;;;;5067501;28;21747;-74
2023/08/03 07:05:15;;;;;;;3.17;1.00;;;17.20;99.90;;;;;;5038276;28;20047;-75
2023/08/03 07:07:41;;;;;;;2.35;0.90;;;17.20;99.90;;;;;;5036913;28;20049;-75
2023/08/03 07:10:07;;;;;;;4.95;0.93;;;17.20;99.90;;;;;;5038185;28;20045;-75
2023/08/03 07:12:36;;;;;;;3.17;0.98;;;17.20;99.90;;;;;;5035510;28;20032;-75
2023/08/03 07:15:02;;;;;;;2.53;0.95;;;17.30;99.90;;;;;;5038862;28;20127;-75
2023/08/03 07:17:27;;;;;;;3.03;0.98;;;17.30;99.90;;;;;;5066643;28;21658;-73
2023/08/03 07:19:54;;;;;;;1.40;0.80;;;17.40;99.90;;;;;;5017874;28;20052;-75
2023/08/03 07:22:23;;;;;;;2.28;0.90;;;17.40;99.90;;;;;;5039221;28;20064;-75
2023/08/03 07:24:49;;;;;;;1.60;0.80;;;17.50;99.90;;;;;;5037341;28;20033;-75
2023/08/03 07:27:15;;;;;;;0.93;0.52;;;17.50;99.90;;;;;;5035258;28;20049;-75
2023/08/03 07:29:41;;;;;;;3.67;0.80;;;17.60;99.90;;;;;;5035993;28;20140;-75
2023/08/03 07:32:07;;;;;;;3.70;0.70;;;17.60;99.90;;;;;;5033629;28;21377;-75
2023/08/03 07:34:33;;;;;;;3.35;0.85;;;17.80;99.90;;;;;;5038960;28;20049;-75
2023/08/03 07:36:59;;;;;;;2.72;0.75;;;17.80;99.90;;;;;;5046890;28;20063;-75
2023/08/03 07:39:25;;;;;;;2.58;0.70;;;17.90;99.90;;;;;;5044432;28;20048;-76
2023/08/03 07:41:51;;;;;;;1.73;0.68;;;17.90;99.90;;;;;;5029801;28;20742;-75
2023/08/03 07:44:18;;;;;;;3.85;1.00;;;17.90;99.90;;;;;;5046059;28;20037;-75
2023/08/03 07:46:44;;;;;;;2.58;0.65;;;17.90;99.90;;;;;;5046084;28;20052;-75
2023/08/03 07:49:10;;;;;;;2.88;0.70;;;17.90;99.90;;;;;;5043586;28;20423;-75
2023/08/03 07:51:36;;;;;;;1.38;0.75;;;17.90;99.90;;;;;;5032189;28;20041;-75
2023/08/03 07:54:02;;;;;;;2.03;0.80;;;17.90;99.90;;;;;;5049815;28;20517;-76
2023/08/03 07:56:28;;;;;;;1.48;0.68;;;17.90;99.90;;;;;;5051674;28;20029;-75
2023/08/03 07:58:53;;;;;;;1.17;0.60;;;18.00;99.90;;;;;;5045471;28;20044;-75
2023/08/03 08:01:20;;;;;;;1.63;0.70;;;17.90;99.90;;;;;;5046870;28;20040;-75
2023/08/03 08:03:46;;;;;;;2.20;0.50;;;17.90;99.90;;;;;;5033805;28;20040;-75
2023/08/03 08:06:17;;;;;;;0.70;0.40;;;17.90;99.90;;;;;;5051852;28;20576;-75
2023/08/03 08:08:44;;;;;;;2.08;0.70;;;17.90;99.90;;;;;;5048448;28;20486;-75
2023/08/03 08:11:11;;;;;;;2.97;0.50;;;17.90;99.90;;;;;;5033702;28;20372;-75
2023/08/03 08:13:36;;;;;;;3.38;0.73;;;18.10;99.90;;;;;;5049591;28;20075;-75
2023/08/03 08:16:04;;;;;;;2.15;1.05;;;18.10;99.90;;;;;;5050231;28;20057;-75
2023/08/03 08:18:31;;;;;;;2.05;0.80;;;18.20;99.90;;;;;;5047159;28;20179;-75
2023/08/03 08:21:01;;;;;;;4.65;1.02;;;18.30;99.90;;;;;;5050002;28;20494;-75
2023/08/03 08:23:27;;;;;;;0.85;0.60;;;18.20;99.90;;;;;;5048600;28;20033;-75
2023/08/03 08:25:53;;;;;;;2.45;0.70;;;18.10;99.90;;;;;;5050867;28;20422;-75
2023/08/03 08:28:18;;;;;;;2.05;0.65;;;18.20;99.90;;;;;;5046433;28;20045;-75
2023/08/03 08:30:44;;;;;;;2.92;0.70;;;18.20;99.90;;;;;;5048449;28;20517;-76
2023/08/03 08:33:10;;;;;;;1.42;0.50;;;18.20;99.90;;;;;;5049684;28;20624;-75
2023/08/03 08:35:36;;;;;;;2.88;0.70;;;18.20;99.90;;;;;;5049878;28;20094;-75
2023/08/03 08:38:05;;;;;;;1.70;0.60;;;18.30;99.90;;;;;;5049375;28;20040;-75
2023/08/03 08:40:37;;;;;;;1.10;0.40;;;18.30;99.90;;;;;;5017512;28;20035;-77
2023/08/03 08:43:03;;;;;;;0.93;0.45;;;18.30;99.90;;;;;;5047412;28;20041;-76
2023/08/03 08:45:32;;;;;;;1.63;0.40;;;18.40;99.90;;;;;;5040125;28;20039;-75
2023/08/03 08:47:58;;;;;;;0.95;0.50;;;18.50;99.90;;;;;;5072115;28;20041;-76
2023/08/03 08:50:24;;;;;;;2.20;0.50;;;18.50;99.90;;;;;;5037518;28;20115;-76
2023/08/03 08:52:51;;;;;;;0.68;0.38;;;18.40;99.90;;;;;;5025731;28;20054;-76
2023/08/03 08:55:25;;;;;;;1.15;0.40;;;18.30;99.90;;;;;;5043234;28;20037;-75
2023/08/03 08:57:51;;;;;;;2.78;0.52;;;18.30;99.90;;;;;;5070108;28;20048;-76
2023/08/03 09:00:19;;;;;;;1.23;0.40;;;18.40;99.90;;;;;;5038968;28;20041;-76
2023/08/03 09:02:45;;;;;;;1.40;0.47;;;18.40;99.90;;;;;;5038536;28;20120;-76
2023/08/03 09:05:33;;;;;;;1.95;0.55;;;18.50;99.90;;;;;;5044566;28;20461;-76
2023/08/03 09:07:59;;;;;;;1.10;0.50;;;18.50;99.90;;;;;;5036705;28;20033;-76
2023/08/03 09:10:25;;;;;;;0.68;0.40;;;18.40;99.90;;;;;;5051927;28;20045;-77
2023/08/03 09:12:51;;;;;;;0.30;0.20;;;18.50;99.90;;;;;;5041387;28;20070;-76
2023/08/03 09:15:16;;;;;;;1.42;0.55;;;18.40;99.90;;;;;;5019382;28;20204;-76
2023/08/03 09:17:46;;;;;;;0.93;0.40;;;18.50;99.90;;;;;;5068456;28;20041;-77
2023/08/03 09:20:28;;;;;;;1.20;0.43;;;18.60;99.90;;;;;;5024473;28;20115;-76
2023/08/03 09:22:53;;;;;;;0.93;0.40;;;18.60;99.90;;;;;;5050375;28;20041;-76
2023/08/03 09:25:19;;;;;;;0.68;0.32;;;18.70;99.90;;;;;;5039436;28;20083;-76
2023/08/03 09:27:49;;;;;;;1.55;0.63;;;18.70;99.90;;;;;;5056011;28;20415;-76
2023/08/03 09:30:15;;;;;;;1.63;0.50;;;18.80;99.90;;;;;;5041297;28;20530;-76
2023/08/03 09:32:42;;;;;;;1.92;0.70;;;18.80;99.90;;;;;;5037148;28;20049;-77
2023/08/03 09:35:20;;;;;;;1.30;0.40;;;18.90;99.90;;;;;;5069779;28;20040;-79
2023/08/03 09:37:47;;;;;;;0.82;0.50;;;18.90;99.90;;;;;;5036930;28;20064;-76
2023/08/03 09:40:15;;;;;;;0.85;0.43;;;18.90;99.90;;;;;;5041154;28;20036;-76
2023/08/03 09:42:41;;;;;;;0.30;0.22;;;19.00;99.90;;;;;;5035913;28;20048;-77
2023/08/03 09:45:09;;;;;;;0.82;0.40;;;19.00;99.90;;;;;;5042406;28;20407;-77
2023/08/03 09:47:35;;;;;;;2.90;0.60;;;19.10;99.90;;;;;;5056254;28;20032;-76
2023/08/03 09:50:01;;;;;;;1.23;0.50;;;19.20;99.90;;;;;;5072144;28;20498;-76
2023/08/03 09:52:28;;;;;;;3.30;0.52;;;19.30;99.90;;;;;;5041369;28;20159;-76
2023/08/03 09:55:13;;;;;;;1.05;0.40;;;19.40;99.90;;;;;;5040028;28;20049;-76
2023/08/03 09:57:58;;;;;;;1.85;0.40;;;19.50;99.90;;;;;;5041074;28;20041;-76
2023/08/03 10:00:25;;;;;;;0.77;0.30;;;19.60;99.90;;;;;;5041286;28;20087;-76
2023/08/03 10:03:10;;;;;;;1.67;0.40;;;19.60;99.90;;;;;;5039936;28;20677;-76
2023/08/03 10:05:52;;;;;;;3.38;0.50;;;19.60;99.90;;;;;;5032552;28;20049;-77
2023/08/03 10:08:30;;;;;;;2.10;0.50;;;19.60;99.90;;;;;;5032848;28;20037;-76
2023/08/03 10:11:00;;;;;;;1.70;0.60;;;19.60;99.90;;;;;;5031724;28;20513;-76
2023/08/03 10:13:27;;;;;;;1.02;0.50;;;19.60;99.90;;;;;;5037353;28;20398;-76
2023/08/03 10:15:53;;;;;;;2.30;0.50;;;19.60;99.90;;;;;;5034459;28;20041;-76
2023/08/03 10:18:19;;;;;;;1.27;0.60;;;19.60;99.90;;;;;;5037714;28;20198;-76
2023/08/03 10:20:46;;;;;;;2.47;0.60;;;19.50;99.90;;;;;;5037206;28;20044;-77
2023/08/03 10:23:17;;;;;;;1.65;0.35;;;19.50;99.90;;;;;;5037579;28;20080;-77
2023/08/03 10:25:54;;;;;;;1.65;0.45;;;19.40;99.90;;;;;;5029880;28;20668;-76
2023/08/03 10:28:26;;;;;;;2.25;0.60;;;19.40;99.90;;;;;;5039034;28;20383;-77
2023/08/03 10:31:11;;;;;;;2.47;0.60;;;19.30;99.90;;;;;;5036265;28;20119;-77
2023/08/03 10:33:46;;;;;;;1.92;0.30;;;19.30;99.90;;;;;;5031564;28;20051;-77
2023/08/03 10:36:28;;;;;;;1.63;0.50;;;19.50;99.90;;;;;;5032415;28;20147;-77
2023/08/03 10:39:00;;;;;;;0.73;0.40;;;19.60;99.90;;;;;;5035806;28;20079;-77
2023/08/03 10:41:37;;;;;;;1.48;0.40;;;19.70;99.90;;;;;;5035794;28;20033;-77
2023/08/03 10:44:06;;;;;;;3.25;0.68;;;19.80;99.90;;;;;;5067980;28;20037;-76
2023/08/03 10:46:45;;;;;;;0.90;0.50;;;19.70;99.90;;;;;;5034765;28;21249;-77
2023/08/03 10:49:22;;;;;;;2.15;0.77;;;19.80;99.90;;;;;;5038329;28;20048;-76
2023/08/03 10:51:53;;;;;;;2.42;0.60;;;19.90;99.90;;;;;;5035566;28;20037;-77
2023/08/03 10:54:29;;;;;;;1.23;0.50;;;20.10;99.90;;;;;;5038149;28;20400;-76
2023/08/03 10:57:15;;;;;;;0.98;0.32;;;20.10;99.90;;;;;;5063119;28;20045;-76
2023/08/03 10:59:49;;;;;;;1.67;0.50;;;20.00;99.90;;;;;;5020136;28;20112;-76
2023/08/03 11:02:22;;;;;;;1.17;0.50;;;19.90;99.90;;;;;;5036084;28;20226;-77
2023/08/03 11:04:52;;;;;;;0.98;0.57;;;19.90;99.90;;;;;;5029578;28;20132;-79
2023/08/03 11:07:27;;;;;;;3.33;0.73;;;19.90;99.90;;;;;;5050195;28;20035;-78
2023/08/03 11:09:53;;;;;;;1.50;0.75;;;19.90;99.90;;;;;;5053055;28;20116;-78
2023/08/03 11:12:22;;;;;;;4.28;0.75;;;19.90;99.90;;;;;;5036815;28;20596;-77
2023/08/03 11:14:50;;;;;;;4.07;0.80;;;19.90;99.90;;;;;;5017231;28;20098;-78
2023/08/03 11:17:20;;;;;;;2.50;0.68;;;19.90;99.90;;;;;;5033762;28;20511;-78
2023/08/03 11:19:46;;;;;;;1.33;0.60;;;19.90;99.90;;;;;;5033322;28;20076;-77
2023/08/03 11:22:12;;;;;;;0.40;0.35;;;19.80;99.90;;;;;;5040470;28;20115;-77
2023/08/03 11:24:38;;;;;;;3.08;0.75;;;19.80;99.90;;;;;;5041112;28;20060;-77
2023/08/03 11:27:04;;;;;;;4.90;0.73;;;19.80;99.90;;;;;;5043815;28;20142;-77
2023/08/03 11:29:33;;;;;;;1.42;0.45;;;19.90;99.90;;;;;;5046211;28;21354;-77
2023/08/03 11:31:59;;;;;;;0.75;0.52;;;20.00;99.90;;;;;;5074639;28;20033;-77
2023/08/03 11:34:24;;;;;;;2.08;0.40;;;20.10;99.90;;;;;;5043233;28;20040;-77
2023/08/03 11:36:51;;;;;;;1.25;0.60;;;20.10;99.90;;;;;;5045359;28;20132;-77
2023/08/03 11:39:20;;;;;;;0.95;0.68;;;20.20;99.90;;;;;;5044369;28;20059;-77
2023/08/03 11:41:47;;;;;;;3.45;0.80;;;20.20;99.90;;;;;;5045702;28;20120;-78
2023/08/03 11:44:13;;;;;;;1.60;0.45;;;20.10;99.90;;;;;;5045473;28;20320;-77
2023/08/03 11:46:39;;;;;;;1.90;0.45;;;20.10;99.90;;;;;;5045560;28;20049;-77
2023/08/03 11:49:05;;;;;;;0.60;0.30;;;20.00;99.90;;;;;;5043573;28;20033;-77
2023/08/03 11:51:38;;;;;;;1.92;0.40;;;19.90;99.90;;;;;;5046044;28;20403;-77
2023/08/03 11:54:08;;;;;;;2.15;0.40;;;19.90;99.90;;;;;;5042836;28;20033;-77
2023/08/03 11:56:35;;;;;;;2.55;0.40;;;19.80;99.90;;;;;;5046847;28;20479;-77
2023/08/03 11:59:04;;;;;;;1.42;0.40;;;19.80;99.90;;;;;;5042779;28;20029;-77
2023/08/03 12:01:30;;;;;;;0.75;0.32;;;19.90;99.90;;;;;;5078316;28;20037;-77
2023/08/03 12:04:07;;;;;;;1.10;0.40;;;19.90;99.90;;;;;;5078542;28;20648;-77
2023/08/03 12:06:51;;;;;;;1.48;0.40;;;19.90;99.90;;;;;;5059664;28;20119;-77
2023/08/03 12:09:40;;;;;;;0.93;0.30;;;19.90;99.90;;;;;;5045367;28;20383;-77
2023/08/03 12:12:08;;;;;;;2.65;0.40;;;19.80;99.90;;;;;;5047334;28;20127;-77
2023/08/03 12:14:34;;;;;;;2.58;0.32;;;19.90;99.90;;;;;;5043522;28;20033;-77
2023/08/03 12:17:00;;;;;;;0.68;0.40;;;19.90;99.90;;;;;;5044462;28;20610;-77
2023/08/03 12:19:33;;;;;;;1.40;0.40;;;19.90;99.90;;;;;;5036977;28;20120;-80
2023/08/03 12:22:01;;;;;;;1.50;0.55;;;20.00;99.90;;;;;;5040044;28;20132;-78
2023/08/03 12:24:26;;;;;;;1.95;0.50;;;20.10;99.90;;;;;;5070513;28;20525;-78
2023/08/03 12:26:52;;;;;;;0.90;0.40;;;20.10;99.90;;;;;;5036801;28;20057;-78
2023/08/03 12:29:17;;;;;;;1.50;0.47;;;20.10;99.90;;;;;;5036819;28;20099;-77
2023/08/03 12:31:43;;;;;;;1.27;0.50;;;20.10;99.90;;;;;;5040097;28;20037;-78
2023/08/03 12:34:09;;;;;;;0.82;0.47;;;20.10;99.90;;;;;;5045277;28;20029;-78
2023/08/03 12:36:34;;;;;;;2.20;0.40;;;20.10;99.90;;;;;;5038342;28;20513;-78
2023/08/03 12:39:00;;;;;;;0.95;0.40;;;20.10;99.90;;;;;;5054086;28;20048;-78
2023/08/03 12:41:25;;;;;;;1.58;0.57;;;20.10;99.90;;;;;;5043200;28;20033;-77
2023/08/03 12:43:51;;;;;;;3.25;0.30;;;20.00;99.90;;;;;;5044489;28;20044;-77
2023/08/03 12:46:17;;;;;;;2.53;0.40;;;20.00;99.90;;;;;;5041498;28;20045;-77
2023/08/03 12:48:42;;;;;;;2.42;0.40;;;20.00;99.90;;;;;;5018895;28;20080;-78
2023/08/03 12:51:09;;;;;;;0.95;0.47;;;20.10;99.90;;;;;;5053034;28;20025;-78